createdAt,value
2018-05-15T00:02:04.781Z,15.03
2018-05-15T00:04:32.241Z,23.50
2018-05-15T00:06:59.721Z,20.90
2018-05-15T00:09:27.940Z,20.10
2018-05-15T00:11:55.424Z,20.57
2018-05-15T00:14:22.885Z,18.07
2018-05-15T00:16:50.373Z,16.43
2018-05-15T00:19:18.598Z,16.40
2018-05-15T00:21:46.056Z,19.03
2018-05-15T00:24:13.532Z,20.57
2018-05-15T00:26:40.992Z,16.87
2018-05-15T00:29:09.241Z,17.83
2018-05-15T00:31:36.705Z,23.90
2018-05-15T00:34:04.181Z,19.53
2018-05-15T00:36:31.641Z,16.23
2018-05-15T00:38:59.121Z,19.60
2018-05-15T00:41:26.586Z,19.40
2018-05-15T00:43:54.064Z,20.87
2018-05-15T00:46:22.292Z,21.47
2018-05-15T00:48:49.769Z,25.33
2018-05-15T00:51:17.225Z,22.47
2018-05-15T00:53:44.713Z,22.77
2018-05-15T00:56:12.941Z,19.47
2018-05-15T00:58:40.417Z,20.83
2018-05-15T01:01:07.891Z,24.60
2018-05-15T01:03:35.356Z,18.90
2018-05-15T01:06:03.610Z,29.67
2018-05-15T01:08:31.912Z,23.43
2018-05-15T01:11:00.168Z,23.43
2018-05-15T01:13:27.621Z,26.30
2018-05-15T01:15:55.104Z,20.33
2018-05-15T01:18:23.344Z,21.37
2018-05-15T01:20:50.837Z,19.27
2018-05-15T01:23:19.093Z,20.07
2018-05-15T01:25:46.549Z,24.60
2018-05-15T01:28:14.028Z,24.23
2018-05-15T01:30:42.253Z,24.80
2018-05-15T01:33:09.733Z,26.30
2018-05-15T01:35:37.189Z,28.67
2018-05-15T01:38:04.701Z,20.90
2018-05-15T01:40:32.156Z,23.43
2018-05-15T01:42:59.649Z,21.67
2018-05-15T01:45:27.108Z,21.97
2018-05-15T01:47:54.564Z,23.87
2018-05-15T01:50:22.067Z,26.93
2018-05-15T01:52:49.520Z,26.30
2018-05-15T01:55:16.982Z,29.87
2018-05-15T01:57:44.461Z,28.63
2018-05-15T02:00:11.935Z,24.50
2018-05-15T02:02:39.401Z,24.07
2018-05-15T02:05:06.884Z,27.10
2018-05-15T02:07:34.340Z,25.27
2018-05-15T02:10:01.825Z,27.70
2018-05-15T02:12:29.309Z,24.17
2018-05-15T02:14:57.533Z,29.37
2018-05-15T02:17:25.023Z,30.27
2018-05-15T02:19:52.458Z,27.47
2018-05-15T02:22:19.926Z,30.03
2018-05-15T02:24:47.394Z,27.00
2018-05-15T02:27:14.959Z,28.50
2018-05-15T02:29:42.397Z,31.43
2018-05-15T02:32:09.848Z,25.67
2018-05-15T02:34:37.292Z,26.07
2018-05-15T02:37:04.757Z,30.80
2018-05-15T02:39:32.221Z,28.87
2018-05-15T02:41:59.681Z,26.40
2018-05-15T02:44:27.141Z,30.90
2018-05-15T02:46:54.606Z,32.43
2018-05-15T02:49:22.043Z,30.10
2018-05-15T02:51:49.501Z,31.80
2018-05-15T02:54:16.941Z,31.90
2018-05-15T02:56:44.401Z,30.30
2018-05-15T02:59:11.867Z,33.03
2018-05-15T03:01:39.311Z,34.70
2018-05-15T03:04:06.765Z,31.90
2018-05-15T03:06:34.198Z,32.20
2018-05-15T03:09:02.447Z,33.90
2018-05-15T03:11:30.090Z,37.00
2018-05-15T03:13:57.825Z,37.37
2018-05-15T03:16:25.266Z,39.00
2018-05-15T03:18:53.472Z,32.43
2018-05-15T03:21:20.977Z,39.20
2018-05-15T03:23:48.437Z,39.53
2018-05-15T03:26:15.885Z,41.33
2018-05-15T03:28:43.353Z,42.47
2018-05-15T03:31:10.797Z,33.17
2018-05-15T03:33:38.261Z,40.07
2018-05-15T03:36:05.709Z,41.30
2018-05-15T03:38:33.172Z,42.17
2018-05-15T03:41:00.609Z,43.57
2018-05-15T03:43:28.073Z,44.00
2018-05-15T03:45:55.517Z,49.30
2018-05-15T03:48:22.969Z,47.40
2018-05-15T03:50:50.417Z,44.13
2018-05-15T03:53:17.887Z,48.70
2018-05-15T03:55:45.322Z,46.37
2018-05-15T03:58:12.761Z,53.10
2018-05-15T04:00:52.434Z,51.17
2018-05-15T04:03:41.200Z,51.33
2018-05-15T04:06:20.373Z,49.33
2018-05-15T04:08:47.837Z,45.63
2018-05-15T04:11:15.283Z,52.77
2018-05-15T04:13:43.562Z,46.80
2018-05-15T04:16:11.029Z,45.63
2018-05-15T04:18:38.473Z,51.03
2018-05-15T04:21:05.960Z,49.80
2018-05-15T04:23:33.413Z,47.90
2018-05-15T04:26:00.869Z,46.10
2018-05-15T04:28:28.405Z,52.20
2018-05-15T04:30:55.774Z,57.80
2018-05-15T04:33:23.210Z,56.27
2018-05-15T04:35:50.711Z,55.63
2018-05-15T04:38:18.152Z,58.23
2018-05-15T04:40:46.889Z,56.97
2018-05-15T04:43:14.321Z,59.43
2018-05-15T04:45:41.784Z,60.80
2018-05-15T04:48:09.986Z,61.00
2018-05-15T04:50:37.446Z,52.93
2018-05-15T04:53:04.881Z,54.03
2018-05-15T04:55:32.344Z,56.80
2018-05-15T04:57:59.781Z,51.87
2018-05-15T05:00:28.001Z,55.03
2018-05-15T05:02:55.458Z,50.40
2018-05-15T05:05:22.909Z,51.27
2018-05-15T05:07:50.357Z,51.50
2018-05-15T05:10:17.816Z,52.00
2018-05-15T05:12:45.255Z,55.53
2018-05-15T05:15:12.713Z,49.07
2018-05-15T05:17:40.201Z,49.47
2018-05-15T05:20:07.653Z,59.53
2018-05-15T05:22:36.260Z,49.97
2018-05-15T05:25:03.723Z,50.60
2018-05-15T05:27:31.177Z,53.07
2018-05-15T05:29:58.621Z,47.37
2018-05-15T05:32:26.079Z,58.43
2018-05-15T05:34:53.542Z,45.57
2018-05-15T05:37:21.011Z,45.53
2018-05-15T05:39:48.469Z,43.87
2018-05-15T05:42:15.953Z,49.90
2018-05-15T05:44:43.410Z,41.00
2018-05-15T05:47:10.869Z,41.73
2018-05-15T05:49:38.321Z,37.13
2018-05-15T05:52:05.848Z,41.67
2018-05-15T05:54:34.053Z,39.47
2018-05-15T05:57:01.517Z,45.23
2018-05-15T05:59:29.006Z,38.30
2018-05-15T06:01:56.496Z,42.87
2018-05-15T06:04:23.946Z,37.60
2018-05-15T06:06:52.503Z,39.03
2018-05-15T06:09:20.714Z,33.10
2018-05-15T06:11:48.178Z,35.63
2018-05-15T06:14:15.626Z,36.40
2018-05-15T06:16:44.693Z,36.23
2018-05-15T06:19:12.903Z,33.27
2018-05-15T06:21:40.375Z,40.77
2018-05-15T06:24:07.813Z,40.00
2018-05-15T06:26:35.257Z,34.70
2018-05-15T06:29:02.713Z,28.53
2018-05-15T06:31:30.178Z,32.47
2018-05-15T06:33:57.630Z,27.67
2018-05-15T06:36:25.103Z,31.03
2018-05-15T06:38:52.532Z,25.53
2018-05-15T06:41:20.943Z,26.47
2018-05-15T06:43:48.365Z,24.07
2018-05-15T06:46:15.829Z,24.93
2018-05-15T06:48:43.277Z,25.80
2018-05-15T06:51:11.498Z,27.93
2018-05-15T06:53:38.972Z,22.70
2018-05-15T06:56:06.420Z,22.63
2018-05-15T06:58:33.905Z,25.10
2018-05-15T07:01:01.386Z,20.03
2018-05-15T07:03:28.820Z,28.13
2018-05-15T07:05:56.313Z,19.20
2018-05-15T07:08:23.782Z,22.03
2018-05-15T07:10:51.293Z,19.57
2018-05-15T07:13:18.738Z,27.80
2018-05-15T07:15:46.218Z,18.43
2018-05-15T07:18:13.677Z,21.67
2018-05-15T07:20:41.121Z,18.90
2018-05-15T07:23:08.562Z,17.90
2018-05-15T07:25:36.026Z,18.23
2018-05-15T07:28:03.530Z,17.53
2018-05-15T07:30:31.784Z,23.10
2018-05-15T07:32:59.225Z,16.17
2018-05-15T07:35:26.665Z,14.30
2018-05-15T07:37:54.121Z,15.20
2018-05-15T07:40:21.664Z,18.10
2018-05-15T07:42:49.036Z,19.30
2018-05-15T07:45:16.506Z,18.10
2018-05-15T07:47:43.966Z,16.57
2018-05-15T07:50:11.418Z,16.00
2018-05-15T07:52:38.857Z,18.77
2018-05-15T07:55:06.316Z,14.20
2018-05-15T07:57:33.785Z,16.63
2018-05-15T08:00:01.250Z,14.67
2018-05-15T08:02:28.701Z,16.67
2018-05-15T08:04:56.169Z,15.10
2018-05-15T08:07:23.616Z,13.57
2018-05-15T08:09:51.086Z,12.90
2018-05-15T08:12:18.528Z,14.03
2018-05-15T08:14:45.964Z,13.47
2018-05-15T08:17:13.420Z,12.60
2018-05-15T08:19:40.868Z,11.53
2018-05-15T08:22:08.329Z,10.70
2018-05-15T08:24:35.780Z,13.17
2018-05-15T08:27:03.492Z,14.43
2018-05-15T08:29:30.922Z,11.87
2018-05-15T08:31:58.365Z,11.47
2018-05-15T08:34:26.588Z,12.87
2018-05-15T08:36:54.036Z,11.03
2018-05-15T08:39:21.485Z,10.67
2018-05-15T08:41:48.941Z,11.00
2018-05-15T08:44:16.381Z,10.93
2018-05-15T08:46:44.621Z,10.73
2018-05-15T08:49:12.079Z,11.93
2018-05-15T08:51:39.553Z,9.70
2018-05-15T08:54:06.987Z,7.93
2018-05-15T08:56:34.425Z,8.77
2018-05-15T08:59:01.941Z,12.13
2018-05-15T09:01:29.401Z,10.80
2018-05-15T09:03:57.597Z,8.80
2018-05-15T09:06:25.071Z,8.23
2018-05-15T09:08:52.517Z,9.93
2018-05-15T09:11:19.953Z,9.10
2018-05-15T09:13:47.384Z,7.70
2018-05-15T09:16:14.833Z,7.93
2018-05-15T09:18:42.269Z,8.50
2018-05-15T09:21:09.730Z,9.38
2018-05-15T09:23:37.193Z,10.00
2018-05-15T09:26:04.625Z,10.75
2018-05-15T09:28:32.093Z,10.23
2018-05-15T09:30:59.526Z,8.23
2018-05-15T09:33:27.779Z,13.65
2018-05-15T09:35:55.217Z,10.82
2018-05-15T09:38:22.677Z,14.38
2018-05-15T09:40:50.115Z,6.43
2018-05-15T09:43:29.381Z,13.25
2018-05-15T09:45:56.817Z,8.15
2018-05-15T09:48:24.262Z,10.70
2018-05-15T09:50:51.724Z,7.55
2018-05-15T09:53:19.158Z,7.93
2018-05-15T09:55:46.624Z,7.45
2018-05-15T09:58:14.058Z,7.37
2018-05-15T10:00:42.277Z,6.03
2018-05-15T10:03:09.717Z,8.03
2018-05-15T10:05:37.165Z,7.20
2018-05-15T10:08:04.668Z,7.70
2018-05-15T10:10:32.834Z,8.43
2018-05-15T10:13:00.272Z,8.13
2018-05-15T10:15:27.753Z,7.20
2018-05-15T10:17:55.179Z,12.17
2018-05-15T10:20:22.618Z,9.47
2018-05-15T10:22:50.852Z,7.77
2018-05-15T10:25:18.289Z,10.30
2018-05-15T10:27:45.778Z,7.47
2018-05-15T10:30:13.213Z,8.37
2018-05-15T10:32:40.673Z,8.67
2018-05-15T10:35:08.149Z,8.20
2018-05-15T10:37:37.740Z,6.97
2018-05-15T10:40:05.173Z,7.07
2018-05-15T10:42:32.610Z,8.23
2018-05-15T10:45:00.853Z,8.03
2018-05-15T10:47:28.277Z,8.10
2018-05-15T10:49:55.763Z,8.60
2018-05-15T10:52:23.207Z,6.68
2018-05-15T10:54:50.641Z,5.03
2018-05-15T10:57:18.102Z,6.55
2018-05-15T10:59:45.544Z,7.50
2018-05-15T11:02:12.992Z,9.80
2018-05-15T11:04:40.442Z,7.68
2018-05-15T11:07:08.673Z,7.55
2018-05-15T11:09:36.162Z,10.45
2018-05-15T11:12:03.613Z,16.80
2018-05-15T11:14:31.074Z,5.57
2018-05-15T11:16:58.553Z,9.57
2018-05-15T11:19:38.648Z,8.43
2018-05-15T11:22:17.894Z,4.60
2018-05-15T11:24:51.258Z,5.37
2018-05-15T11:27:18.701Z,8.35
2018-05-15T11:29:46.157Z,9.63
2018-05-15T11:32:13.598Z,5.53
2018-05-15T11:34:41.057Z,8.88
2018-05-15T11:37:08.520Z,6.32
2018-05-15T11:39:35.973Z,8.95
2018-05-15T11:42:03.410Z,6.18
2018-05-15T11:44:30.877Z,8.23
2018-05-15T11:46:58.345Z,5.50
2018-05-15T11:49:26.704Z,4.93
2018-05-15T11:51:54.184Z,6.53
2018-05-15T11:54:21.496Z,8.50
2018-05-15T11:56:48.947Z,6.43
2018-05-15T11:59:17.180Z,12.57
2018-05-15T12:01:44.635Z,10.30
2018-05-15T12:04:12.111Z,4.65
2018-05-15T12:06:39.763Z,6.72
2018-05-15T12:09:07.299Z,6.15
2018-05-15T12:11:34.665Z,6.72
2018-05-15T12:14:02.145Z,5.10
2018-05-15T12:16:30.355Z,7.90
2018-05-15T12:18:57.828Z,8.10
2018-05-15T12:21:25.301Z,4.50
2018-05-15T12:23:52.766Z,6.15
2018-05-15T12:26:20.209Z,5.35
2018-05-15T12:28:47.666Z,7.18
2018-05-15T12:31:15.154Z,5.55
2018-05-15T12:33:42.604Z,5.35
2018-05-15T12:36:10.054Z,5.60
2018-05-15T12:38:37.489Z,5.00
2018-05-15T12:41:04.958Z,9.57
2018-05-15T12:43:32.420Z,8.48
2018-05-15T12:45:59.886Z,15.98
2018-05-15T12:48:27.579Z,8.00
2018-05-15T12:50:54.968Z,8.23
2018-05-15T12:53:22.405Z,5.85
2018-05-15T12:55:49.857Z,4.37
2018-05-15T12:58:17.310Z,9.50
2018-05-15T13:00:44.763Z,6.35
2018-05-15T13:03:12.201Z,6.18
2018-05-15T13:05:39.680Z,7.37
2018-05-15T13:08:07.146Z,5.53
2018-05-15T13:10:34.601Z,5.03
2018-05-15T13:13:02.841Z,10.70
2018-05-15T13:15:30.289Z,5.72
2018-05-15T13:17:57.761Z,9.45
2018-05-15T13:20:25.250Z,6.22
2018-05-15T13:22:52.677Z,4.45
2018-05-15T13:25:20.147Z,8.90
2018-05-15T13:27:47.613Z,6.47
2018-05-15T13:30:15.053Z,8.80
2018-05-15T13:32:42.496Z,6.68
2018-05-15T13:35:09.954Z,5.03
2018-05-15T13:37:37.609Z,10.23
2018-05-15T13:40:05.072Z,7.47
2018-05-15T13:42:32.517Z,7.00
2018-05-15T13:45:00.718Z,4.85
2018-05-15T13:47:28.216Z,7.62
2018-05-15T13:49:56.445Z,7.37
2018-05-15T13:52:23.885Z,8.25
2018-05-15T13:54:51.325Z,4.65
2018-05-15T13:57:18.789Z,7.50
2018-05-15T13:59:46.248Z,7.12
2018-05-15T14:02:13.685Z,5.15
2018-05-15T14:04:41.905Z,7.03
2018-05-15T14:07:09.350Z,8.75
2018-05-15T14:09:36.802Z,7.93
2018-05-15T14:12:04.237Z,9.65
2018-05-15T14:14:31.698Z,6.32
2018-05-15T14:16:59.137Z,4.97
2018-05-15T14:19:27.360Z,5.62
2018-05-15T14:21:54.816Z,8.07
2018-05-15T14:24:22.284Z,8.55
2018-05-15T14:26:49.750Z,5.20
2018-05-15T14:29:17.195Z,7.87
2018-05-15T14:31:44.650Z,6.07
2018-05-15T14:34:12.090Z,8.00
2018-05-15T14:36:39.556Z,7.32
2018-05-15T14:39:07.005Z,7.03
2018-05-15T14:41:46.153Z,5.72
2018-05-15T14:44:13.593Z,5.45
2018-05-15T14:46:41.068Z,6.37
2018-05-15T14:49:08.531Z,7.68
2018-05-15T14:51:35.977Z,9.75
2018-05-15T14:54:06.993Z,9.10
2018-05-15T14:56:35.222Z,5.87
2018-05-15T14:59:02.680Z,9.85
2018-05-15T15:01:30.134Z,7.73
2018-05-15T15:03:57.581Z,7.97
2018-05-15T15:06:25.046Z,13.33
2018-05-15T15:08:52.484Z,6.17
2018-05-15T15:11:19.945Z,8.50
2018-05-15T15:13:47.401Z,5.37
2018-05-15T15:16:14.878Z,8.33
2018-05-15T15:18:42.301Z,9.73
2018-05-15T15:21:10.526Z,7.40
2018-05-15T15:23:37.989Z,6.63
2018-05-15T15:26:05.424Z,6.57
2018-05-15T15:28:32.906Z,8.73
2018-05-15T15:31:00.364Z,5.67
2018-05-15T15:33:27.834Z,5.10
2018-05-15T15:35:55.263Z,6.43
2018-05-15T15:38:22.717Z,7.60
2018-05-15T15:40:50.157Z,7.27
2018-05-15T15:43:17.594Z,9.00
2018-05-15T15:45:45.817Z,9.80
2018-05-15T15:48:13.258Z,7.00
2018-05-15T15:50:40.727Z,7.63
2018-05-15T15:53:08.187Z,9.80
2018-05-15T15:55:35.641Z,6.83
2018-05-15T15:58:03.129Z,9.10
2018-05-15T16:00:30.601Z,6.20
2018-05-15T16:02:58.057Z,7.63
2018-05-15T16:05:25.517Z,9.23
2018-05-15T16:07:52.955Z,5.40
2018-05-15T16:10:20.400Z,13.43
2018-05-15T16:12:47.857Z,6.53
2018-05-15T16:15:15.338Z,5.30
2018-05-15T16:17:44.047Z,5.20
2018-05-15T16:20:11.620Z,7.77
2018-05-15T16:22:39.059Z,5.10
2018-05-15T16:25:06.438Z,8.63
2018-05-15T16:27:34.653Z,8.27
2018-05-15T16:30:02.111Z,13.10
2018-05-15T16:32:29.570Z,8.77
2018-05-15T16:34:57.017Z,6.90
2018-05-15T16:37:24.486Z,8.10
2018-05-15T16:39:51.945Z,6.57
2018-05-15T16:42:19.517Z,6.37
2018-05-15T16:44:46.968Z,11.13
2018-05-15T16:47:14.440Z,6.13
2018-05-15T16:49:41.881Z,11.30
2018-05-15T16:52:09.345Z,7.30
2018-05-15T16:54:36.791Z,7.93
2018-05-15T16:57:04.251Z,9.63
2018-05-15T16:59:31.702Z,14.80
2018-05-15T17:01:59.201Z,11.03
2018-05-15T17:04:26.641Z,9.47
2018-05-15T17:06:54.082Z,7.23
2018-05-15T17:09:22.358Z,9.17
2018-05-15T17:11:49.798Z,8.80
2018-05-15T17:14:17.250Z,5.80
2018-05-15T17:16:45.481Z,5.33
2018-05-15T17:19:13.151Z,9.23
2018-05-15T17:21:40.602Z,8.97
2018-05-15T17:24:08.050Z,5.60
2018-05-15T17:26:35.510Z,13.27
2018-05-15T17:29:02.961Z,7.97
2018-05-15T17:31:30.513Z,6.00
2018-05-15T17:33:57.849Z,7.07
2018-05-15T17:36:26.131Z,9.23
2018-05-15T17:38:53.618Z,9.60
2018-05-15T17:41:21.085Z,6.80
2018-05-15T17:43:48.620Z,7.93
2018-05-15T17:46:16.098Z,16.87
2018-05-15T17:48:43.542Z,9.13
2018-05-15T17:51:11.010Z,6.07
2018-05-15T17:53:38.469Z,9.03
2018-05-15T17:56:05.926Z,9.23
2018-05-15T17:58:33.385Z,5.73
2018-05-15T18:01:00.840Z,9.20
2018-05-15T18:03:28.300Z,9.17
2018-05-15T18:05:55.765Z,6.93
2018-05-15T18:08:23.282Z,7.70
2018-05-15T18:10:50.667Z,7.90
2018-05-15T18:13:18.118Z,13.70
2018-05-15T18:15:45.572Z,7.53
2018-05-15T18:18:13.774Z,6.23
2018-05-15T18:20:41.257Z,10.03
2018-05-15T18:23:09.245Z,8.17
2018-05-15T18:25:36.761Z,9.37
2018-05-15T18:28:04.158Z,8.33
2018-05-15T18:30:31.596Z,8.53
2018-05-15T18:32:59.063Z,5.70
2018-05-15T18:35:26.516Z,5.83
2018-05-15T18:37:53.985Z,11.27
2018-05-15T18:40:21.421Z,5.90
2018-05-15T18:42:48.865Z,10.03
2018-05-15T18:45:16.373Z,9.70
2018-05-15T18:47:43.760Z,5.73
2018-05-15T18:50:11.217Z,8.43
2018-05-15T18:52:38.653Z,8.57
2018-05-15T18:55:06.179Z,9.97
2018-05-15T18:57:33.638Z,6.90
2018-05-15T19:00:01.093Z,10.60
2018-05-15T19:02:28.546Z,10.43
2018-05-15T19:04:56.017Z,6.40
2018-05-15T19:07:23.477Z,11.50
2018-05-15T19:09:51.722Z,10.47
2018-05-15T19:12:19.153Z,8.23
2018-05-15T19:14:46.589Z,8.10
2018-05-15T19:17:14.913Z,8.30
2018-05-15T19:19:42.352Z,8.13
2018-05-15T19:22:09.781Z,8.13
2018-05-15T19:24:38.010Z,8.70
2018-05-15T19:27:05.528Z,7.23
2018-05-15T19:29:32.902Z,16.20
2018-05-15T19:32:05.902Z,12.30
2018-05-15T19:34:33.378Z,9.20
2018-05-15T19:37:06.528Z,6.10
2018-05-15T19:39:34.049Z,10.37
2018-05-15T19:42:01.469Z,7.97
2018-05-15T19:44:28.921Z,7.33
2018-05-15T19:46:56.362Z,8.27
2018-05-15T19:49:23.829Z,7.20
2018-05-15T19:51:51.308Z,10.57
2018-05-15T19:54:18.740Z,8.47
2018-05-15T19:56:46.217Z,12.43
2018-05-15T19:59:13.673Z,7.60
2018-05-15T20:01:41.125Z,12.50
2018-05-15T20:04:08.581Z,7.53
2018-05-15T20:06:36.021Z,9.43
2018-05-15T20:09:03.489Z,9.27
2018-05-15T20:11:30.917Z,8.90
2018-05-15T20:13:58.373Z,7.87
2018-05-15T20:16:25.830Z,7.33
2018-05-15T20:18:53.285Z,9.13
2018-05-15T20:21:20.726Z,9.20
2018-05-15T20:23:48.247Z,9.40
2018-05-15T20:26:15.627Z,6.87
2018-05-15T20:28:43.076Z,7.67
2018-05-15T20:31:10.565Z,6.70
2018-05-15T20:33:38.005Z,7.60
2018-05-15T20:36:05.446Z,11.63
2018-05-15T20:38:32.901Z,10.43
2018-05-15T20:41:00.338Z,7.47
2018-05-15T20:43:27.811Z,9.30
2018-05-15T20:45:55.230Z,9.00
2018-05-15T20:48:26.549Z,8.03
2018-05-15T20:50:53.993Z,7.20
2018-05-15T20:53:21.449Z,9.77
2018-05-15T20:55:48.892Z,9.73
2018-05-15T20:58:16.369Z,8.67
2018-05-15T21:00:43.900Z,8.57
2018-05-15T21:03:11.277Z,7.73
2018-05-15T21:05:38.712Z,7.73
2018-05-15T21:08:06.174Z,10.43
2018-05-15T21:10:34.231Z,6.40
2018-05-15T21:13:01.694Z,7.40
2018-05-15T21:15:29.918Z,10.57
2018-05-15T21:17:57.333Z,8.63
2018-05-15T21:20:24.851Z,9.70
2018-05-15T21:22:52.221Z,7.10
2018-05-15T21:25:19.668Z,7.30
2018-05-15T21:27:47.117Z,10.03
2018-05-15T21:30:14.570Z,9.50
2018-05-15T21:32:42.026Z,6.27
2018-05-15T21:35:09.457Z,10.03
2018-05-15T21:37:36.916Z,10.80
2018-05-15T21:40:04.362Z,11.00
2018-05-15T21:42:31.808Z,7.53
2018-05-15T21:44:59.245Z,8.57
2018-05-15T21:47:26.678Z,8.37
2018-05-15T21:49:54.137Z,10.27
2018-05-15T21:52:21.572Z,6.07
2018-05-15T21:54:49.025Z,8.50
2018-05-15T21:57:16.473Z,8.27
2018-05-15T21:59:43.933Z,9.23
2018-05-15T22:02:11.409Z,6.93
2018-05-15T22:04:38.854Z,11.53
2018-05-15T22:07:06.381Z,7.90
2018-05-15T22:09:34.611Z,10.57
2018-05-15T22:12:13.732Z,9.63
2018-05-15T22:14:52.923Z,9.37
2018-05-15T22:17:33.097Z,7.57
2018-05-15T22:20:12.424Z,10.23
2018-05-15T22:22:39.389Z,7.87
2018-05-15T22:25:06.850Z,10.20
2018-05-15T22:27:34.869Z,10.27
2018-05-15T22:30:02.378Z,7.90
2018-05-15T22:32:29.827Z,10.20
2018-05-15T22:34:57.278Z,9.03
2018-05-15T22:37:24.729Z,11.87
2018-05-15T22:39:52.950Z,14.43
2018-05-15T22:42:20.400Z,8.43
2018-05-15T22:44:47.839Z,6.93
2018-05-15T22:47:15.306Z,9.20
2018-05-15T22:49:42.748Z,7.47
2018-05-15T22:52:10.209Z,9.03
2018-05-15T22:54:37.646Z,13.43
2018-05-15T22:57:05.077Z,9.30
2018-05-15T22:59:32.530Z,8.87
2018-05-15T23:01:59.992Z,11.33
2018-05-15T23:04:27.429Z,12.97
2018-05-15T23:06:54.865Z,9.87
2018-05-15T23:09:22.323Z,9.10
2018-05-15T23:11:49.754Z,8.63
2018-05-15T23:14:17.989Z,10.53
2018-05-15T23:16:45.437Z,9.03
2018-05-15T23:19:12.897Z,12.47
2018-05-15T23:21:40.337Z,10.97
2018-05-15T23:24:07.797Z,7.80
2018-05-15T23:26:35.232Z,7.97
2018-05-15T23:29:02.723Z,8.03
2018-05-15T23:31:30.177Z,10.13
2018-05-15T23:33:57.684Z,11.03
2018-05-15T23:36:25.105Z,7.87
2018-05-15T23:38:52.561Z,10.03
2018-05-15T23:41:19.997Z,10.07
2018-05-15T23:43:47.455Z,7.50
2018-05-15T23:46:14.893Z,11.43
2018-05-15T23:48:42.353Z,14.17
2018-05-15T23:51:09.805Z,12.60
2018-05-15T23:53:37.253Z,9.80
2018-05-15T23:56:04.696Z,10.63
2018-05-15T23:58:32.153Z,9.33
